sensor_id;sensor_type;location;lat;lon;timestamp;P1;durP1;ratioP1;P2;durP2;ratioP2
35380;SDS011;21486;51.916;8.378;2023-12-20T01:33:01;17.85;;;4.28;;
35380;SDS011;21486;51.916;8.378;2023-12-20T01:35:27;14.47;;;4.57;;
35380;SDS011;21486;51.916;8.378;2023-12-20T01:37:52;17.93;;;5.27;;
35380;SDS011;21486;51.916;8.378;2023-12-20T01:40:21;14.95;;;4.47;;
35380;SDS011;21486;51.916;8.378;2023-12-20T01:42:47;16.37;;;4.63;;
35380;SDS011;21486;51.916;8.378;2023-12-20T01:45:12;15.00;;;4.70;;
35380;SDS011;21486;51.916;8.378;2023-12-20T01:47:38;13.27;;;5.20;;
35380;SDS011;21486;51.916;8.378;2023-12-20T01:50:04;9.20;;;4.35;;
35380;SDS011;21486;51.916;8.378;2023-12-20T01:52:32;9.38;;;3.95;;
35380;SDS011;21486;51.916;8.378;2023-12-20T01:54:59;14.65;;;5.32;;
35380;SDS011;21486;51.916;8.378;2023-12-20T01:57:28;12.90;;;4.80;;
35380;SDS011;21486;51.916;8.378;2023-12-20T01:59:53;10.80;;;5.00;;
35380;SDS011;21486;51.916;8.378;2023-12-20T02:02:19;12.13;;;3.92;;
35380;SDS011;21486;51.916;8.378;2023-12-20T02:04:45;12.23;;;4.43;;
35380;SDS011;21486;51.916;8.378;2023-12-20T02:07:12;13.43;;;4.13;;
35380;SDS011;21486;51.916;8.378;2023-12-20T02:09:38;11.80;;;3.97;;
35380;SDS011;21486;51.916;8.378;2023-12-20T02:12:05;9.48;;;4.05;;
35380;SDS011;21486;51.916;8.378;2023-12-20T02:14:30;14.47;;;4.10;;
35380;SDS011;21486;51.916;8.378;2023-12-20T02:16:56;13.43;;;3.83;;
35380;SDS011;21486;51.916;8.378;2023-12-20T02:19:21;12.53;;;3.70;;
35380;SDS011;21486;51.916;8.378;2023-12-20T02:21:47;11.73;;;3.88;;
35380;SDS011;21486;51.916;8.378;2023-12-20T02:24:12;14.25;;;4.47;;
35380;SDS011;21486;51.916;8.378;2023-12-20T02:26:38;9.57;;;4.10;;
35380;SDS011;21486;51.916;8.378;2023-12-20T02:29:03;12.77;;;4.30;;
35380;SDS011;21486;51.916;8.378;2023-12-20T02:31:29;13.20;;;4.97;;
35380;SDS011;21486;51.916;8.378;2023-12-20T02:33:54;10.43;;;4.20;;
35380;SDS011;21486;51.916;8.378;2023-12-20T02:36:20;13.83;;;4.23;;
35380;SDS011;21486;51.916;8.378;2023-12-20T02:38:45;11.80;;;4.60;;
35380;SDS011;21486;51.916;8.378;2023-12-20T02:41:11;12.65;;;4.90;;
35380;SDS011;21486;51.916;8.378;2023-12-20T02:43:37;12.97;;;4.50;;
35380;SDS011;21486;51.916;8.378;2023-12-20T02:46:02;15.53;;;5.30;;
35380;SDS011;21486;51.916;8.378;2023-12-20T02:48:28;10.90;;;5.17;;
35380;SDS011;21486;51.916;8.378;2023-12-20T02:50:53;12.50;;;4.63;;
35380;SDS011;21486;51.916;8.378;2023-12-20T02:53:19;12.23;;;6.15;;
35380;SDS011;21486;51.916;8.378;2023-12-20T02:55:45;14.98;;;6.05;;
35380;SDS011;21486;51.916;8.378;2023-12-20T02:58:11;11.25;;;5.10;;
35380;SDS011;21486;51.916;8.378;2023-12-20T03:00:36;14.57;;;5.80;;
35380;SDS011;21486;51.916;8.378;2023-12-20T03:03:02;21.60;;;5.57;;
35380;SDS011;21486;51.916;8.378;2023-12-20T03:05:28;19.23;;;6.20;;
35380;SDS011;21486;51.916;8.378;2023-12-20T03:07:53;17.95;;;5.78;;
35380;SDS011;21486;51.916;8.378;2023-12-20T03:10:18;17.05;;;6.03;;
35380;SDS011;21486;51.916;8.378;2023-12-20T03:12:44;17.20;;;6.15;;
35380;SDS011;21486;51.916;8.378;2023-12-20T03:15:10;20.48;;;7.05;;
35380;SDS011;21486;51.916;8.378;2023-12-20T03:17:35;21.00;;;6.78;;
35380;SDS011;21486;51.916;8.378;2023-12-20T03:20:01;21.55;;;7.15;;
35380;SDS011;21486;51.916;8.378;2023-12-20T03:22:27;24.05;;;7.22;;
35380;SDS011;21486;51.916;8.378;2023-12-20T03:24:52;14.52;;;6.65;;
35380;SDS011;21486;51.916;8.378;2023-12-20T03:27:18;21.70;;;7.75;;
35380;SDS011;21486;51.916;8.378;2023-12-20T03:29:43;27.42;;;7.35;;
35380;SDS011;21486;51.916;8.378;2023-12-20T03:32:09;16.90;;;7.03;;
35380;SDS011;21486;51.916;8.378;2023-12-20T03:34:34;19.85;;;7.07;;
35380;SDS011;21486;51.916;8.378;2023-12-20T03:37:00;17.90;;;7.32;;
35380;SDS011;21486;51.916;8.378;2023-12-20T03:39:25;19.08;;;6.78;;
35380;SDS011;21486;51.916;8.378;2023-12-20T03:41:51;22.77;;;7.03;;
35380;SDS011;21486;51.916;8.378;2023-12-20T03:44:16;15.70;;;7.05;;
35380;SDS011;21486;51.916;8.378;2023-12-20T03:46:42;24.48;;;7.65;;
35380;SDS011;21486;51.916;8.378;2023-12-20T03:49:07;29.65;;;7.53;;
35380;SDS011;21486;51.916;8.378;2023-12-20T03:51:33;20.48;;;6.97;;
35380;SDS011;21486;51.916;8.378;2023-12-20T03:53:58;21.27;;;6.47;;
35380;SDS011;21486;51.916;8.378;2023-12-20T03:56:24;15.50;;;6.95;;
35380;SDS011;21486;51.916;8.378;2023-12-20T03:58:49;20.92;;;7.65;;
35380;SDS011;21486;51.916;8.378;2023-12-20T04:01:15;27.17;;;7.85;;
35380;SDS011;21486;51.916;8.378;2023-12-20T04:03:40;23.70;;;6.63;;
35380;SDS011;21486;51.916;8.378;2023-12-20T04:06:06;19.13;;;7.10;;
35380;SDS011;21486;51.916;8.378;2023-12-20T04:08:31;25.27;;;7.13;;
35380;SDS011;21486;51.916;8.378;2023-12-20T04:10:57;15.77;;;5.78;;
35380;SDS011;21486;51.916;8.378;2023-12-20T04:13:22;19.27;;;6.82;;
35380;SDS011;21486;51.916;8.378;2023-12-20T04:15:48;23.90;;;6.32;;
35380;SDS011;21486;51.916;8.378;2023-12-20T04:18:15;21.25;;;7.10;;
35380;SDS011;21486;51.916;8.378;2023-12-20T04:20:41;19.95;;;6.22;;
35380;SDS011;21486;51.916;8.378;2023-12-20T04:23:06;16.75;;;5.82;;
35380;SDS011;21486;51.916;8.378;2023-12-20T04:25:32;27.52;;;5.78;;
35380;SDS011;21486;51.916;8.378;2023-12-20T04:27:57;19.70;;;5.93;;
35380;SDS011;21486;51.916;8.378;2023-12-20T04:30:23;27.10;;;5.63;;
35380;SDS011;21486;51.916;8.378;2023-12-20T04:32:49;24.98;;;6.38;;
35380;SDS011;21486;51.916;8.378;2023-12-20T04:35:14;24.30;;;6.20;;
35380;SDS011;21486;51.916;8.378;2023-12-20T04:37:40;22.52;;;4.72;;
35380;SDS011;21486;51.916;8.378;2023-12-20T04:40:05;20.13;;;5.70;;
35380;SDS011;21486;51.916;8.378;2023-12-20T04:42:32;13.75;;;5.22;;
35380;SDS011;21486;51.916;8.378;2023-12-20T04:44:58;33.05;;;6.07;;
35380;SDS011;21486;51.916;8.378;2023-12-20T04:47:23;22.00;;;5.38;;
35380;SDS011;21486;51.916;8.378;2023-12-20T04:49:49;20.55;;;5.35;;
35380;SDS011;21486;51.916;8.378;2023-12-20T04:52:14;19.35;;;6.38;;
35380;SDS011;21486;51.916;8.378;2023-12-20T04:54:40;26.52;;;5.05;;
35380;SDS011;21486;51.916;8.378;2023-12-20T04:57:05;17.08;;;5.53;;
35380;SDS011;21486;51.916;8.378;2023-12-20T04:59:31;13.75;;;4.65;;
35380;SDS011;21486;51.916;8.378;2023-12-20T05:01:56;18.80;;;5.90;;
35380;SDS011;21486;51.916;8.378;2023-12-20T05:04:22;15.23;;;4.82;;
35380;SDS011;21486;51.916;8.378;2023-12-20T05:06:48;18.20;;;5.97;;
35380;SDS011;21486;51.916;8.378;2023-12-20T05:09:15;27.88;;;5.65;;
35380;SDS011;21486;51.916;8.378;2023-12-20T05:11:40;21.85;;;6.07;;
35380;SDS011;21486;51.916;8.378;2023-12-20T05:14:06;15.13;;;5.05;;
35380;SDS011;21486;51.916;8.378;2023-12-20T05:16:32;17.90;;;5.47;;
35380;SDS011;21486;51.916;8.378;2023-12-20T05:18:57;19.33;;;5.47;;
35380;SDS011;21486;51.916;8.378;2023-12-20T05:21:25;24.65;;;5.45;;
35380;SDS011;21486;51.916;8.378;2023-12-20T05:23:51;22.17;;;5.55;;
35380;SDS011;21486;51.916;8.378;2023-12-20T05:26:16;20.85;;;5.60;;
35380;SDS011;21486;51.916;8.378;2023-12-20T05:28:42;19.58;;;6.63;;
35380;SDS011;21486;51.916;8.378;2023-12-20T05:31:07;23.20;;;5.60;;
35380;SDS011;21486;51.916;8.378;2023-12-20T05:33:34;19.48;;;5.43;;
35380;SDS011;21486;51.916;8.378;2023-12-20T05:35:59;27.40;;;6.45;;
35380;SDS011;21486;51.916;8.378;2023-12-20T05:38:25;15.93;;;6.40;;
35380;SDS011;21486;51.916;8.378;2023-12-20T05:40:50;23.85;;;6.72;;
35380;SDS011;21486;51.916;8.378;2023-12-20T05:43:16;26.13;;;6.10;;
35380;SDS011;21486;51.916;8.378;2023-12-20T05:45:42;27.70;;;6.65;;
35380;SDS011;21486;51.916;8.378;2023-12-20T05:48:07;16.45;;;5.85;;
35380;SDS011;21486;51.916;8.378;2023-12-20T05:50:33;18.23;;;6.07;;
35380;SDS011;21486;51.916;8.378;2023-12-20T05:52:59;21.90;;;6.70;;
35380;SDS011;21486;51.916;8.378;2023-12-20T05:55:25;19.88;;;6.40;;
35380;SDS011;21486;51.916;8.378;2023-12-20T05:57:50;19.77;;;6.40;;
35380;SDS011;21486;51.916;8.378;2023-12-20T06:00:16;15.30;;;6.00;;
35380;SDS011;21486;51.916;8.378;2023-12-20T06:02:42;19.63;;;6.18;;
35380;SDS011;21486;51.916;8.378;2023-12-20T06:05:08;25.83;;;6.68;;
35380;SDS011;21486;51.916;8.378;2023-12-20T06:07:33;17.35;;;5.97;;
35380;SDS011;21486;51.916;8.378;2023-12-20T06:09:59;33.08;;;7.88;;
35380;SDS011;21486;51.916;8.378;2023-12-20T06:12:24;22.83;;;7.43;;
35380;SDS011;21486;51.916;8.378;2023-12-20T06:14:51;21.33;;;6.68;;
35380;SDS011;21486;51.916;8.378;2023-12-20T06:17:17;21.27;;;7.18;;
35380;SDS011;21486;51.916;8.378;2023-12-20T06:19:42;27.10;;;7.65;;
35380;SDS011;21486;51.916;8.378;2023-12-20T06:22:09;25.30;;;7.07;;
35380;SDS011;21486;51.916;8.378;2023-12-20T06:24:35;23.38;;;6.13;;
35380;SDS011;21486;51.916;8.378;2023-12-20T06:27:01;18.58;;;6.43;;
35380;SDS011;21486;51.916;8.378;2023-12-20T06:29:27;30.42;;;6.80;;
35380;SDS011;21486;51.916;8.378;2023-12-20T06:31:53;32.85;;;6.68;;
35380;SDS011;21486;51.916;8.378;2023-12-20T06:34:18;25.35;;;6.47;;
35380;SDS011;21486;51.916;8.378;2023-12-20T06:36:44;24.17;;;6.95;;
35380;SDS011;21486;51.916;8.378;2023-12-20T06:39:09;20.38;;;6.32;;
35380;SDS011;21486;51.916;8.378;2023-12-20T06:41:37;24.60;;;6.70;;
35380;SDS011;21486;51.916;8.378;2023-12-20T06:44:03;27.83;;;6.97;;
35380;SDS011;21486;51.916;8.378;2023-12-20T06:46:28;33.20;;;7.13;;
35380;SDS011;21486;51.916;8.378;2023-12-20T06:48:54;21.05;;;6.03;;
35380;SDS011;21486;51.916;8.378;2023-12-20T06:51:19;35.28;;;6.90;;
35380;SDS011;21486;51.916;8.378;2023-12-20T06:53:45;24.55;;;7.50;;
35380;SDS011;21486;51.916;8.378;2023-12-20T06:56:11;26.08;;;6.55;;
35380;SDS011;21486;51.916;8.378;2023-12-20T06:58:37;18.58;;;5.65;;
35380;SDS011;21486;51.916;8.378;2023-12-20T07:01:03;27.88;;;7.10;;
35380;SDS011;21486;51.916;8.378;2023-12-20T07:03:29;17.85;;;6.18;;
35380;SDS011;21486;51.916;8.378;2023-12-20T07:05:55;22.23;;;6.72;;
35380;SDS011;21486;51.916;8.378;2023-12-20T07:08:20;28.08;;;6.30;;
35380;SDS011;21486;51.916;8.378;2023-12-20T07:10:46;25.27;;;7.13;;
35380;SDS011;21486;51.916;8.378;2023-12-20T07:13:11;20.33;;;5.65;;
35380;SDS011;21486;51.916;8.378;2023-12-20T07:15:37;23.52;;;6.00;;
35380;SDS011;21486;51.916;8.378;2023-12-20T07:18:03;24.33;;;5.55;;
35380;SDS011;21486;51.916;8.378;2023-12-20T07:20:29;20.70;;;5.72;;
35380;SDS011;21486;51.916;8.378;2023-12-20T07:22:55;31.73;;;6.03;;
35380;SDS011;21486;51.916;8.378;2023-12-20T07:25:20;16.75;;;5.50;;
35380;SDS011;21486;51.916;8.378;2023-12-20T07:27:46;22.60;;;5.45;;
35380;SDS011;21486;51.916;8.378;2023-12-20T07:30:11;21.40;;;5.68;;
35380;SDS011;21486;51.916;8.378;2023-12-20T07:32:37;21.50;;;4.85;;
35380;SDS011;21486;51.916;8.378;2023-12-20T07:35:03;23.10;;;5.78;;
35380;SDS011;21486;51.916;8.378;2023-12-20T07:37:28;14.50;;;5.07;;
35380;SDS011;21486;51.916;8.378;2023-12-20T07:39:54;22.20;;;4.80;;
35380;SDS011;21486;51.916;8.378;2023-12-20T07:42:19;9.68;;;4.13;;
35380;SDS011;21486;51.916;8.378;2023-12-20T07:44:46;26.30;;;5.53;;
35380;SDS011;21486;51.916;8.378;2023-12-20T07:47:12;28.65;;;5.10;;
35380;SDS011;21486;51.916;8.378;2023-12-20T07:49:40;27.80;;;4.70;;
35380;SDS011;21486;51.916;8.378;2023-12-20T07:52:06;15.90;;;4.78;;
35380;SDS011;21486;51.916;8.378;2023-12-20T07:54:33;10.75;;;4.10;;
35380;SDS011;21486;51.916;8.378;2023-12-20T07:56:58;15.13;;;4.13;;
35380;SDS011;21486;51.916;8.378;2023-12-20T07:59:24;21.88;;;4.90;;
35380;SDS011;21486;51.916;8.378;2023-12-20T08:01:49;19.27;;;5.00;;
35380;SDS011;21486;51.916;8.378;2023-12-20T08:04:15;15.90;;;4.22;;
35380;SDS011;21486;51.916;8.378;2023-12-20T08:06:40;22.30;;;4.90;;
35380;SDS011;21486;51.916;8.378;2023-12-20T08:09:06;17.75;;;5.07;;
35380;SDS011;21486;51.916;8.378;2023-12-20T08:11:31;18.35;;;4.07;;
35380;SDS011;21486;51.916;8.378;2023-12-20T08:13:57;16.63;;;5.05;;
35380;SDS011;21486;51.916;8.378;2023-12-20T08:16:23;23.30;;;4.47;;
35380;SDS011;21486;51.916;8.378;2023-12-20T08:18:48;21.85;;;4.68;;
35380;SDS011;21486;51.916;8.378;2023-12-20T08:21:15;15.80;;;4.63;;
35380;SDS011;21486;51.916;8.378;2023-12-20T08:23:40;16.67;;;5.22;;
35380;SDS011;21486;51.916;8.378;2023-12-20T08:26:06;21.25;;;5.25;;
35380;SDS011;21486;51.916;8.378;2023-12-20T08:28:32;14.20;;;5.35;;
35380;SDS011;21486;51.916;8.378;2023-12-20T08:30:58;25.75;;;5.65;;
35380;SDS011;21486;51.916;8.378;2023-12-20T08:33:24;26.33;;;5.20;;
35380;SDS011;21486;51.916;8.378;2023-12-20T08:35:49;22.35;;;6.03;;
35380;SDS011;21486;51.916;8.378;2023-12-20T08:38:15;22.73;;;6.20;;
35380;SDS011;21486;51.916;8.378;2023-12-20T08:40:41;18.35;;;6.25;;
35380;SDS011;21486;51.916;8.378;2023-12-20T08:43:07;33.10;;;6.15;;
35380;SDS011;21486;51.916;8.378;2023-12-20T08:45:32;25.55;;;5.38;;
35380;SDS011;21486;51.916;8.378;2023-12-20T08:47:58;22.15;;;5.63;;
35380;SDS011;21486;51.916;8.378;2023-12-20T08:50:24;14.88;;;5.40;;
35380;SDS011;21486;51.916;8.378;2023-12-20T08:52:50;23.95;;;6.32;;
35380;SDS011;21486;51.916;8.378;2023-12-20T08:55:16;14.95;;;5.97;;
35380;SDS011;21486;51.916;8.378;2023-12-20T08:57:43;19.60;;;5.90;;
35380;SDS011;21486;51.916;8.378;2023-12-20T09:00:08;31.17;;;5.95;;
35380;SDS011;21486;51.916;8.378;2023-12-20T09:02:34;20.92;;;5.82;;
35380;SDS011;21486;51.916;8.378;2023-12-20T09:05:01;24.35;;;6.65;;
35380;SDS011;21486;51.916;8.378;2023-12-20T09:07:27;20.25;;;6.93;;
35380;SDS011;21486;51.916;8.378;2023-12-20T09:09:55;27.50;;;7.00;;
35380;SDS011;21486;51.916;8.378;2023-12-20T09:12:21;61.95;;;8.35;;
35380;SDS011;21486;51.916;8.378;2023-12-20T09:14:47;24.80;;;7.57;;
35380;SDS011;21486;51.916;8.378;2023-12-20T09:17:13;22.85;;;6.45;;
35380;SDS011;21486;51.916;8.378;2023-12-20T09:19:39;28.70;;;8.07;;
35380;SDS011;21486;51.916;8.378;2023-12-20T09:22:04;17.33;;;5.68;;
35380;SDS011;21486;51.916;8.378;2023-12-20T09:24:30;18.33;;;7.07;;
35380;SDS011;21486;51.916;8.378;2023-12-20T09:26:56;22.63;;;8.32;;
35380;SDS011;21486;51.916;8.378;2023-12-20T09:29:22;31.27;;;8.45;;
35380;SDS011;21486;51.916;8.378;2023-12-20T09:31:48;29.77;;;8.07;;
35380;SDS011;21486;51.916;8.378;2023-12-20T09:34:15;16.98;;;7.03;;
35380;SDS011;21486;51.916;8.378;2023-12-20T09:36:40;16.50;;;7.38;;
35380;SDS011;21486;51.916;8.378;2023-12-20T09:39:11;28.63;;;8.48;;
35380;SDS011;21486;51.916;8.378;2023-12-20T09:41:44;25.83;;;7.28;;
35380;SDS011;21486;51.916;8.378;2023-12-20T09:44:15;16.90;;;6.82;;
35380;SDS011;21486;51.916;8.378;2023-12-20T09:46:43;17.50;;;5.85;;
35380;SDS011;21486;51.916;8.378;2023-12-20T09:49:11;31.05;;;7.63;;
35380;SDS011;21486;51.916;8.378;2023-12-20T09:51:37;21.90;;;5.97;;
35380;SDS011;21486;51.916;8.378;2023-12-20T09:54:03;22.17;;;7.32;;
35380;SDS011;21486;51.916;8.378;2023-12-20T09:56:30;25.02;;;8.32;;
35380;SDS011;21486;51.916;8.378;2023-12-20T09:58:55;21.08;;;6.88;;
35380;SDS011;21486;51.916;8.378;2023-12-20T10:01:22;33.50;;;7.07;;
35380;SDS011;21486;51.916;8.378;2023-12-20T10:03:48;24.90;;;7.47;;
35380;SDS011;21486;51.916;8.378;2023-12-20T10:06:16;29.45;;;7.30;;
35380;SDS011;21486;51.916;8.378;2023-12-20T10:08:42;22.50;;;6.22;;
35380;SDS011;21486;51.916;8.378;2023-12-20T10:11:08;24.85;;;6.43;;
35380;SDS011;21486;51.916;8.378;2023-12-20T10:13:34;22.48;;;6.53;;
35380;SDS011;21486;51.916;8.378;2023-12-20T10:16:03;35.33;;;7.88;;
35380;SDS011;21486;51.916;8.378;2023-12-20T10:18:30;22.98;;;5.85;;
35380;SDS011;21486;51.916;8.378;2023-12-20T10:20:57;19.45;;;6.45;;
35380;SDS011;21486;51.916;8.378;2023-12-20T10:23:22;24.05;;;6.47;;
35380;SDS011;21486;51.916;8.378;2023-12-20T10:25:59;24.90;;;7.03;;
35380;SDS011;21486;51.916;8.378;2023-12-20T10:28:26;19.08;;;5.93;;
35380;SDS011;21486;51.916;8.378;2023-12-20T10:30:54;29.52;;;6.93;;
35380;SDS011;21486;51.916;8.378;2023-12-20T10:33:26;23.38;;;6.18;;
35380;SDS011;21486;51.916;8.378;2023-12-20T10:38:22;25.90;;;6.35;;
35380;SDS011;21486;51.916;8.378;2023-12-20T10:40:48;30.45;;;6.00;;
35380;SDS011;21486;51.916;8.378;2023-12-20T10:43:18;22.90;;;5.80;;
35380;SDS011;21486;51.916;8.378;2023-12-20T10:45:45;19.58;;;5.13;;
35380;SDS011;21486;51.916;8.378;2023-12-20T10:48:10;24.08;;;5.97;;
35380;SDS011;21486;51.916;8.378;2023-12-20T10:50:39;29.05;;;6.00;;
35380;SDS011;21486;51.916;8.378;2023-12-20T10:53:07;16.88;;;4.88;;
35380;SDS011;21486;51.916;8.378;2023-12-20T10:55:33;17.40;;;5.55;;
35380;SDS011;21486;51.916;8.378;2023-12-20T10:58:06;32.63;;;6.10;;
35380;SDS011;21486;51.916;8.378;2023-12-20T11:03:02;21.05;;;5.75;;
35380;SDS011;21486;51.916;8.378;2023-12-20T11:05:42;21.00;;;5.28;;
35380;SDS011;21486;51.916;8.378;2023-12-20T11:08:20;18.05;;;5.28;;
35380;SDS011;21486;51.916;8.378;2023-12-20T11:11:05;26.35;;;6.22;;
35380;SDS011;21486;51.916;8.378;2023-12-20T11:13:48;22.10;;;5.93;;
35380;SDS011;21486;51.916;8.378;2023-12-20T11:16:36;12.05;;;4.85;;
35380;SDS011;21486;51.916;8.378;2023-12-20T11:19:05;19.95;;;5.75;;
35380;SDS011;21486;51.916;8.378;2023-12-20T11:21:31;19.33;;;5.50;;
35380;SDS011;21486;51.916;8.378;2023-12-20T11:23:57;17.05;;;5.28;;
35380;SDS011;21486;51.916;8.378;2023-12-20T11:26:27;14.38;;;5.00;;
35380;SDS011;21486;51.916;8.378;2023-12-20T11:28:53;21.60;;;5.25;;
35380;SDS011;21486;51.916;8.378;2023-12-20T11:31:19;19.55;;;5.43;;
35380;SDS011;21486;51.916;8.378;2023-12-20T11:33:45;27.40;;;6.18;;
35380;SDS011;21486;51.916;8.378;2023-12-20T11:36:14;24.70;;;5.20;;
35380;SDS011;21486;51.916;8.378;2023-12-20T11:39:16;16.98;;;5.00;;
35380;SDS011;21486;51.916;8.378;2023-12-20T11:41:36;15.05;;;4.57;;
35380;SDS011;21486;51.916;8.378;2023-12-20T11:44:01;22.20;;;5.32;;
35380;SDS011;21486;51.916;8.378;2023-12-20T11:46:29;20.38;;;5.07;;
35380;SDS011;21486;51.916;8.378;2023-12-20T11:48:56;12.10;;;4.38;;
35380;SDS011;21486;51.916;8.378;2023-12-20T11:51:22;18.38;;;4.43;;
35380;SDS011;21486;51.916;8.378;2023-12-20T11:53:51;15.25;;;4.30;;
35380;SDS011;21486;51.916;8.378;2023-12-20T11:56:18;10.20;;;3.70;;
35380;SDS011;21486;51.916;8.378;2023-12-20T11:58:43;10.82;;;3.47;;
35380;SDS011;21486;51.916;8.378;2023-12-20T12:01:09;23.60;;;5.63;;
35380;SDS011;21486;51.916;8.378;2023-12-20T12:03:35;11.57;;;4.40;;
35380;SDS011;21486;51.916;8.378;2023-12-20T12:06:01;6.25;;;3.58;;
35380;SDS011;21486;51.916;8.378;2023-12-20T12:08:29;13.25;;;3.47;;
35380;SDS011;21486;51.916;8.378;2023-12-20T12:10:54;14.57;;;4.10;;
35380;SDS011;21486;51.916;8.378;2023-12-20T12:13:20;12.75;;;3.53;;
35380;SDS011;21486;51.916;8.378;2023-12-20T12:15:47;13.63;;;3.72;;
35380;SDS011;21486;51.916;8.378;2023-12-20T12:18:16;8.35;;;3.47;;
35380;SDS011;21486;51.916;8.378;2023-12-20T12:20:42;14.10;;;3.58;;
35380;SDS011;21486;51.916;8.378;2023-12-20T12:23:07;13.85;;;3.85;;
35380;SDS011;21486;51.916;8.378;2023-12-20T12:25:36;12.63;;;3.25;;
35380;SDS011;21486;51.916;8.378;2023-12-20T12:28:02;10.25;;;3.53;;
35380;SDS011;21486;51.916;8.378;2023-12-20T12:30:28;14.93;;;3.60;;
35380;SDS011;21486;51.916;8.378;2023-12-20T12:32:54;14.15;;;3.60;;
35380;SDS011;21486;51.916;8.378;2023-12-20T12:35:21;16.00;;;3.60;;
35380;SDS011;21486;51.916;8.378;2023-12-20T12:37:47;13.43;;;4.00;;
35380;SDS011;21486;51.916;8.378;2023-12-20T12:49:57;17.10;;;4.03;;
35380;SDS011;21486;51.916;8.378;2023-12-20T12:54:49;13.00;;;4.03;;
35380;SDS011;21486;51.916;8.378;2023-12-20T12:57:14;19.33;;;3.88;;
35380;SDS011;21486;51.916;8.378;2023-12-20T12:59:43;17.48;;;3.42;;
35380;SDS011;21486;51.916;8.378;2023-12-20T13:02:11;19.40;;;3.17;;
35380;SDS011;21486;51.916;8.378;2023-12-20T13:04:38;20.60;;;4.38;;
35380;SDS011;21486;51.916;8.378;2023-12-20T13:07:04;15.00;;;3.83;;
35380;SDS011;21486;51.916;8.378;2023-12-20T13:09:30;26.92;;;4.38;;
35380;SDS011;21486;51.916;8.378;2023-12-20T13:11:55;20.15;;;4.57;;
35380;SDS011;21486;51.916;8.378;2023-12-20T13:14:21;18.90;;;3.90;;
35380;SDS011;21486;51.916;8.378;2023-12-20T13:16:47;21.90;;;4.05;;
35380;SDS011;21486;51.916;8.378;2023-12-20T13:19:13;13.80;;;3.65;;
35380;SDS011;21486;51.916;8.378;2023-12-20T13:21:38;10.38;;;4.13;;
35380;SDS011;21486;51.916;8.378;2023-12-20T13:24:04;20.63;;;3.55;;
35380;SDS011;21486;51.916;8.378;2023-12-20T13:28:56;3.42;;;1.38;;
35380;SDS011;21486;51.916;8.378;2023-12-20T13:31:21;5.88;;;1.52;;
35380;SDS011;21486;51.916;8.378;2023-12-20T13:33:47;4.15;;;2.35;;
35380;SDS011;21486;51.916;8.378;2023-12-20T13:36:12;10.07;;;1.83;;
35380;SDS011;21486;51.916;8.378;2023-12-20T13:38:38;7.70;;;1.90;;
35380;SDS011;21486;51.916;8.378;2023-12-20T13:41:04;7.13;;;1.40;;
35380;SDS011;21486;51.916;8.378;2023-12-20T13:43:30;4.00;;;1.67;;
